sensor_id;sensor_type;location;lat;lon;timestamp;P1;durP1;ratioP1;P2;durP2;ratioP2
15931;SDS011;8065;49.520;11.284;2024-03-29T00:01:01;1.83;;;1.50;;
15931;SDS011;8065;49.520;11.284;2024-03-29T00:03:27;1.83;;;1.30;;
15931;SDS011;8065;49.520;11.284;2024-03-29T00:05:52;1.40;;;1.30;;
15931;SDS011;8065;49.520;11.284;2024-03-29T00:08:21;2.50;;;1.50;;
15931;SDS011;8065;49.520;11.284;2024-03-29T00:10:46;1.43;;;1.10;;
15931;SDS011;8065;49.520;11.284;2024-03-29T00:13:12;2.10;;;1.20;;
15931;SDS011;8065;49.520;11.284;2024-03-29T00:15:38;1.47;;;1.37;;
15931;SDS011;8065;49.520;11.284;2024-03-29T00:18:04;1.67;;;1.50;;
15931;SDS011;8065;49.520;11.284;2024-03-29T00:20:30;1.97;;;1.30;;
15931;SDS011;8065;49.520;11.284;2024-03-29T00:22:55;2.07;;;1.40;;
15931;SDS011;8065;49.520;11.284;2024-03-29T00:25:24;5.53;;;1.70;;
15931;SDS011;8065;49.520;11.284;2024-03-29T00:27:49;1.97;;;1.40;;
15931;SDS011;8065;49.520;11.284;2024-03-29T00:30:15;1.57;;;1.47;;
15931;SDS011;8065;49.520;11.284;2024-03-29T00:32:41;1.67;;;1.23;;
15931;SDS011;8065;49.520;11.284;2024-03-29T00:35:07;1.20;;;1.10;;
15931;SDS011;8065;49.520;11.284;2024-03-29T00:37:33;1.47;;;1.37;;
15931;SDS011;8065;49.520;11.284;2024-03-29T00:39:59;1.30;;;1.20;;
15931;SDS011;8065;49.520;11.284;2024-03-29T00:42:27;2.03;;;1.30;;
15931;SDS011;8065;49.520;11.284;2024-03-29T00:44:52;1.40;;;1.30;;
15931;SDS011;8065;49.520;11.284;2024-03-29T00:47:18;2.50;;;1.40;;
15931;SDS011;8065;49.520;11.284;2024-03-29T00:49:44;2.63;;;1.60;;
15931;SDS011;8065;49.520;11.284;2024-03-29T00:52:10;1.60;;;1.20;;
15931;SDS011;8065;49.520;11.284;2024-03-29T00:54:35;3.33;;;1.30;;
15931;SDS011;8065;49.520;11.284;2024-03-29T00:57:01;3.63;;;1.20;;
15931;SDS011;8065;49.520;11.284;2024-03-29T00:59:29;1.73;;;1.30;;
15931;SDS011;8065;49.520;11.284;2024-03-29T01:01:55;1.30;;;1.20;;
15931;SDS011;8065;49.520;11.284;2024-03-29T01:04:21;1.43;;;1.20;;
15931;SDS011;8065;49.520;11.284;2024-03-29T01:06:47;1.53;;;1.17;;
15931;SDS011;8065;49.520;11.284;2024-03-29T01:09:12;1.90;;;1.23;;
15931;SDS011;8065;49.520;11.284;2024-03-29T01:11:38;1.57;;;1.37;;
15931;SDS011;8065;49.520;11.284;2024-03-29T01:14:04;1.00;;;0.83;;
15931;SDS011;8065;49.520;11.284;2024-03-29T01:16:33;2.60;;;1.30;;
15931;SDS011;8065;49.520;11.284;2024-03-29T01:18:59;2.93;;;1.50;;
15931;SDS011;8065;49.520;11.284;2024-03-29T01:21:25;1.73;;;1.30;;
15931;SDS011;8065;49.520;11.284;2024-03-29T01:23:51;2.07;;;1.30;;
15931;SDS011;8065;49.520;11.284;2024-03-29T01:26:17;1.20;;;1.10;;
15931;SDS011;8065;49.520;11.284;2024-03-29T01:28:43;1.23;;;1.13;;
15931;SDS011;8065;49.520;11.284;2024-03-29T01:31:09;2.37;;;1.23;;
15931;SDS011;8065;49.520;11.284;2024-03-29T01:33:37;2.33;;;1.20;;
15931;SDS011;8065;49.520;11.284;2024-03-29T01:36:03;2.50;;;1.20;;
15931;SDS011;8065;49.520;11.284;2024-03-29T01:38:30;1.20;;;1.10;;
15931;SDS011;8065;49.520;11.284;2024-03-29T01:40:55;2.33;;;1.20;;
15931;SDS011;8065;49.520;11.284;2024-03-29T01:43:21;1.67;;;1.33;;
15931;SDS011;8065;49.520;11.284;2024-03-29T01:45:47;1.33;;;1.23;;
15931;SDS011;8065;49.520;11.284;2024-03-29T01:48:16;1.33;;;1.17;;
15931;SDS011;8065;49.520;11.284;2024-03-29T01:50:45;2.20;;;1.40;;
15931;SDS011;8065;49.520;11.284;2024-03-29T01:53:12;2.23;;;1.47;;
15931;SDS011;8065;49.520;11.284;2024-03-29T01:55:39;1.40;;;1.30;;
15931;SDS011;8065;49.520;11.284;2024-03-29T01:58:06;2.03;;;1.60;;
15931;SDS011;8065;49.520;11.284;2024-03-29T02:00:33;2.30;;;1.60;;
15931;SDS011;8065;49.520;11.284;2024-03-29T02:03:02;1.83;;;1.60;;
15931;SDS011;8065;49.520;11.284;2024-03-29T02:05:28;3.30;;;2.00;;
15931;SDS011;8065;49.520;11.284;2024-03-29T02:07:56;2.67;;;1.80;;
15931;SDS011;8065;49.520;11.284;2024-03-29T02:10:23;2.13;;;1.93;;
15931;SDS011;8065;49.520;11.284;2024-03-29T02:12:48;2.20;;;1.80;;
15931;SDS011;8065;49.520;11.284;2024-03-29T02:15:14;3.20;;;1.93;;
15931;SDS011;8065;49.520;11.284;2024-03-29T02:17:40;2.47;;;1.80;;
15931;SDS011;8065;49.520;11.284;2024-03-29T02:20:06;2.13;;;1.87;;
15931;SDS011;8065;49.520;11.284;2024-03-29T02:22:33;2.07;;;1.83;;
15931;SDS011;8065;49.520;11.284;2024-03-29T02:25:07;2.30;;;2.10;;
15931;SDS011;8065;49.520;11.284;2024-03-29T02:27:33;2.90;;;2.00;;
15931;SDS011;8065;49.520;11.284;2024-03-29T02:29:59;1.90;;;1.70;;
15931;SDS011;8065;49.520;11.284;2024-03-29T02:32:25;2.00;;;1.60;;
15931;SDS011;8065;49.520;11.284;2024-03-29T02:34:52;2.37;;;1.47;;
15931;SDS011;8065;49.520;11.284;2024-03-29T02:37:18;2.03;;;1.50;;
15931;SDS011;8065;49.520;11.284;2024-03-29T02:39:44;1.47;;;1.33;;
15931;SDS011;8065;49.520;11.284;2024-03-29T02:42:12;2.30;;;1.50;;
15931;SDS011;8065;49.520;11.284;2024-03-29T02:44:38;2.47;;;1.50;;
15931;SDS011;8065;49.520;11.284;2024-03-29T02:47:04;2.10;;;1.40;;
15931;SDS011;8065;49.520;11.284;2024-03-29T02:49:30;2.53;;;1.30;;
15931;SDS011;8065;49.520;11.284;2024-03-29T02:51:55;1.80;;;1.30;;
15931;SDS011;8065;49.520;11.284;2024-03-29T02:54:22;1.50;;;1.23;;
15931;SDS011;8065;49.520;11.284;2024-03-29T02:56:48;0.80;;;0.80;;
15931;SDS011;8065;49.520;11.284;2024-03-29T02:59:16;1.57;;;1.13;;
15931;SDS011;8065;49.520;11.284;2024-03-29T03:01:42;0.80;;;0.80;;
15931;SDS011;8065;49.520;11.284;2024-03-29T03:04:07;1.53;;;1.00;;
15931;SDS011;8065;49.520;11.284;2024-03-29T03:06:33;1.17;;;0.97;;
15931;SDS011;8065;49.520;11.284;2024-03-29T03:08:59;1.87;;;0.80;;
15931;SDS011;8065;49.520;11.284;2024-03-29T03:11:40;1.00;;;0.93;;
15931;SDS011;8065;49.520;11.284;2024-03-29T03:14:05;1.07;;;0.97;;
15931;SDS011;8065;49.520;11.284;2024-03-29T03:16:34;0.77;;;0.77;;
15931;SDS011;8065;49.520;11.284;2024-03-29T03:18:59;1.30;;;1.00;;
15931;SDS011;8065;49.520;11.284;2024-03-29T03:21:25;0.87;;;0.80;;
15931;SDS011;8065;49.520;11.284;2024-03-29T03:23:51;0.67;;;0.67;;
15931;SDS011;8065;49.520;11.284;2024-03-29T03:26:16;0.77;;;0.67;;
15931;SDS011;8065;49.520;11.284;2024-03-29T03:28:42;1.80;;;0.80;;
15931;SDS011;8065;49.520;11.284;2024-03-29T03:31:08;1.20;;;0.90;;
15931;SDS011;8065;49.520;11.284;2024-03-29T03:33:36;1.23;;;0.90;;
15931;SDS011;8065;49.520;11.284;2024-03-29T03:36:02;1.13;;;0.70;;
15931;SDS011;8065;49.520;11.284;2024-03-29T03:38:28;1.43;;;0.90;;
15931;SDS011;8065;49.520;11.284;2024-03-29T03:40:54;1.87;;;1.10;;
15931;SDS011;8065;49.520;11.284;2024-03-29T03:43:19;2.10;;;0.80;;
15931;SDS011;8065;49.520;11.284;2024-03-29T03:45:45;0.60;;;0.60;;
15931;SDS011;8065;49.520;11.284;2024-03-29T03:48:11;0.97;;;0.70;;
15931;SDS011;8065;49.520;11.284;2024-03-29T03:50:39;2.10;;;0.97;;
15931;SDS011;8065;49.520;11.284;2024-03-29T03:53:05;0.80;;;0.70;;
15931;SDS011;8065;49.520;11.284;2024-03-29T03:55:32;1.70;;;1.00;;
15931;SDS011;8065;49.520;11.284;2024-03-29T03:58:00;0.80;;;0.73;;
15931;SDS011;8065;49.520;11.284;2024-03-29T04:00:26;1.00;;;0.80;;
15931;SDS011;8065;49.520;11.284;2024-03-29T04:02:52;0.87;;;0.87;;
15931;SDS011;8065;49.520;11.284;2024-03-29T04:05:18;1.23;;;1.00;;
15931;SDS011;8065;49.520;11.284;2024-03-29T04:07:47;0.60;;;0.60;;
15931;SDS011;8065;49.520;11.284;2024-03-29T04:10:13;0.60;;;0.60;;
15931;SDS011;8065;49.520;11.284;2024-03-29T04:12:39;0.73;;;0.73;;
15931;SDS011;8065;49.520;11.284;2024-03-29T04:15:05;0.93;;;0.80;;
15931;SDS011;8065;49.520;11.284;2024-03-29T04:17:32;1.07;;;0.77;;
15931;SDS011;8065;49.520;11.284;2024-03-29T04:19:58;0.80;;;0.80;;
15931;SDS011;8065;49.520;11.284;2024-03-29T04:22:24;1.10;;;0.80;;
15931;SDS011;8065;49.520;11.284;2024-03-29T04:24:55;0.70;;;0.70;;
15931;SDS011;8065;49.520;11.284;2024-03-29T04:27:20;1.03;;;0.70;;
15931;SDS011;8065;49.520;11.284;2024-03-29T04:29:46;3.23;;;1.83;;
15931;SDS011;8065;49.520;11.284;2024-03-29T04:32:12;1.47;;;1.00;;
15931;SDS011;8065;49.520;11.284;2024-03-29T04:34:38;0.70;;;0.70;;
15931;SDS011;8065;49.520;11.284;2024-03-29T04:37:04;1.70;;;1.00;;
15931;SDS011;8065;49.520;11.284;2024-03-29T04:39:29;0.70;;;0.70;;
15931;SDS011;8065;49.520;11.284;2024-03-29T04:41:58;0.80;;;0.80;;
15931;SDS011;8065;49.520;11.284;2024-03-29T04:44:24;0.63;;;0.63;;
15931;SDS011;8065;49.520;11.284;2024-03-29T04:46:50;0.63;;;0.63;;
15931;SDS011;8065;49.520;11.284;2024-03-29T04:49:18;1.23;;;0.90;;
15931;SDS011;8065;49.520;11.284;2024-03-29T04:51:45;0.80;;;0.80;;
15931;SDS011;8065;49.520;11.284;2024-03-29T04:54:11;0.80;;;0.80;;
15931;SDS011;8065;49.520;11.284;2024-03-29T04:56:37;1.30;;;0.87;;
15931;SDS011;8065;49.520;11.284;2024-03-29T04:59:05;0.80;;;0.80;;
15931;SDS011;8065;49.520;11.284;2024-03-29T05:01:31;0.70;;;0.70;;
15931;SDS011;8065;49.520;11.284;2024-03-29T05:03:56;0.80;;;0.80;;
15931;SDS011;8065;49.520;11.284;2024-03-29T05:06:22;0.80;;;0.73;;
15931;SDS011;8065;49.520;11.284;2024-03-29T05:08:48;0.80;;;0.80;;
15931;SDS011;8065;49.520;11.284;2024-03-29T05:11:14;0.73;;;0.73;;
15931;SDS011;8065;49.520;11.284;2024-03-29T05:13:39;0.83;;;0.70;;
15931;SDS011;8065;49.520;11.284;2024-03-29T05:16:08;0.73;;;0.73;;
15931;SDS011;8065;49.520;11.284;2024-03-29T05:18:33;0.80;;;0.80;;
15931;SDS011;8065;49.520;11.284;2024-03-29T05:20:59;0.73;;;0.63;;
15931;SDS011;8065;49.520;11.284;2024-03-29T05:23:25;0.73;;;0.73;;
15931;SDS011;8065;49.520;11.284;2024-03-29T05:25:50;0.77;;;0.77;;
15931;SDS011;8065;49.520;11.284;2024-03-29T05:28:16;0.83;;;0.60;;
15931;SDS011;8065;49.520;11.284;2024-03-29T05:30:42;0.63;;;0.63;;
15931;SDS011;8065;49.520;11.284;2024-03-29T05:33:11;0.97;;;0.60;;
15931;SDS011;8065;49.520;11.284;2024-03-29T05:35:37;0.70;;;0.70;;
15931;SDS011;8065;49.520;11.284;2024-03-29T05:38:02;0.80;;;0.80;;
15931;SDS011;8065;49.520;11.284;2024-03-29T05:40:29;0.97;;;0.80;;
15931;SDS011;8065;49.520;11.284;2024-03-29T05:42:54;0.90;;;0.90;;
15931;SDS011;8065;49.520;11.284;2024-03-29T05:45:24;1.33;;;0.80;;
15931;SDS011;8065;49.520;11.284;2024-03-29T05:47:51;2.90;;;0.93;;
15931;SDS011;8065;49.520;11.284;2024-03-29T05:50:19;1.10;;;1.00;;
15931;SDS011;8065;49.520;11.284;2024-03-29T05:52:45;1.67;;;1.17;;
15931;SDS011;8065;49.520;11.284;2024-03-29T05:55:11;1.33;;;0.93;;
15931;SDS011;8065;49.520;11.284;2024-03-29T05:57:36;0.70;;;0.70;;
15931;SDS011;8065;49.520;11.284;2024-03-29T06:00:03;1.77;;;0.90;;
15931;SDS011;8065;49.520;11.284;2024-03-29T06:02:30;1.00;;;0.90;;
15931;SDS011;8065;49.520;11.284;2024-03-29T06:04:55;1.20;;;0.83;;
15931;SDS011;8065;49.520;11.284;2024-03-29T06:07:23;1.03;;;1.03;;
15931;SDS011;8065;49.520;11.284;2024-03-29T06:09:49;2.33;;;1.63;;
15931;SDS011;8065;49.520;11.284;2024-03-29T06:12:15;1.73;;;1.43;;
15931;SDS011;8065;49.520;11.284;2024-03-29T06:14:41;1.20;;;1.10;;
15931;SDS011;8065;49.520;11.284;2024-03-29T06:17:21;1.83;;;1.73;;
15931;SDS011;8065;49.520;11.284;2024-03-29T06:19:50;1.90;;;1.70;;
15931;SDS011;8065;49.520;11.284;2024-03-29T06:22:16;1.60;;;1.37;;
15931;SDS011;8065;49.520;11.284;2024-03-29T06:24:44;1.30;;;1.20;;
15931;SDS011;8065;49.520;11.284;2024-03-29T06:27:10;3.13;;;1.70;;
15931;SDS011;8065;49.520;11.284;2024-03-29T06:29:36;1.70;;;1.60;;
15931;SDS011;8065;49.520;11.284;2024-03-29T06:32:01;2.17;;;1.40;;
15931;SDS011;8065;49.520;11.284;2024-03-29T06:34:29;1.40;;;1.30;;
15931;SDS011;8065;49.520;11.284;2024-03-29T06:36:56;1.43;;;1.33;;
15931;SDS011;8065;49.520;11.284;2024-03-29T06:39:21;1.13;;;1.00;;
15931;SDS011;8065;49.520;11.284;2024-03-29T06:41:50;0.80;;;0.80;;
15931;SDS011;8065;49.520;11.284;2024-03-29T06:44:15;1.00;;;0.90;;
15931;SDS011;8065;49.520;11.284;2024-03-29T06:46:41;0.90;;;0.90;;
15931;SDS011;8065;49.520;11.284;2024-03-29T06:49:07;0.80;;;0.80;;
15931;SDS011;8065;49.520;11.284;2024-03-29T06:51:32;0.70;;;0.70;;
15931;SDS011;8065;49.520;11.284;2024-03-29T06:53:58;0.73;;;0.50;;
15931;SDS011;8065;49.520;11.284;2024-03-29T06:56:24;1.07;;;0.70;;
15931;SDS011;8065;49.520;11.284;2024-03-29T06:58:52;0.73;;;0.63;;
15931;SDS011;8065;49.520;11.284;2024-03-29T07:01:18;1.00;;;0.90;;
15931;SDS011;8065;49.520;11.284;2024-03-29T07:03:44;0.80;;;0.80;;
15931;SDS011;8065;49.520;11.284;2024-03-29T07:06:09;1.20;;;1.10;;
15931;SDS011;8065;49.520;11.284;2024-03-29T07:08:35;1.07;;;0.93;;
15931;SDS011;8065;49.520;11.284;2024-03-29T07:11:01;0.70;;;0.70;;
15931;SDS011;8065;49.520;11.284;2024-03-29T07:13:28;0.90;;;0.80;;
15931;SDS011;8065;49.520;11.284;2024-03-29T07:15:58;0.70;;;0.70;;
15931;SDS011;8065;49.520;11.284;2024-03-29T07:18:23;0.70;;;0.70;;
15931;SDS011;8065;49.520;11.284;2024-03-29T07:20:49;0.70;;;0.70;;
15931;SDS011;8065;49.520;11.284;2024-03-29T07:23:15;0.60;;;0.60;;
15931;SDS011;8065;49.520;11.284;2024-03-29T07:25:43;0.77;;;0.77;;
15931;SDS011;8065;49.520;11.284;2024-03-29T07:28:09;1.10;;;0.80;;
15931;SDS011;8065;49.520;11.284;2024-03-29T07:30:35;0.73;;;0.73;;
15931;SDS011;8065;49.520;11.284;2024-03-29T07:33:05;0.60;;;0.60;;
15931;SDS011;8065;49.520;11.284;2024-03-29T07:35:30;0.70;;;0.70;;
15931;SDS011;8065;49.520;11.284;2024-03-29T07:37:56;0.60;;;0.60;;
15931;SDS011;8065;49.520;11.284;2024-03-29T07:40:22;0.87;;;0.87;;
15931;SDS011;8065;49.520;11.284;2024-03-29T07:42:47;0.70;;;0.53;;
15931;SDS011;8065;49.520;11.284;2024-03-29T07:45:13;0.50;;;0.50;;
15931;SDS011;8065;49.520;11.284;2024-03-29T07:47:39;1.47;;;0.60;;
15931;SDS011;8065;49.520;11.284;2024-03-29T07:50:08;1.23;;;0.60;;
15931;SDS011;8065;49.520;11.284;2024-03-29T07:52:34;0.60;;;0.60;;
15931;SDS011;8065;49.520;11.284;2024-03-29T07:55:00;0.60;;;0.60;;
15931;SDS011;8065;49.520;11.284;2024-03-29T07:57:25;1.30;;;0.60;;
15931;SDS011;8065;49.520;11.284;2024-03-29T07:59:51;1.13;;;0.67;;
15931;SDS011;8065;49.520;11.284;2024-03-29T08:02:17;1.13;;;0.70;;
15931;SDS011;8065;49.520;11.284;2024-03-29T08:04:43;0.60;;;0.60;;
15931;SDS011;8065;49.520;11.284;2024-03-29T08:07:11;0.97;;;0.70;;
15931;SDS011;8065;49.520;11.284;2024-03-29T08:09:37;3.10;;;0.80;;
15931;SDS011;8065;49.520;11.284;2024-03-29T08:12:03;0.40;;;0.40;;
15931;SDS011;8065;49.520;11.284;2024-03-29T08:14:29;1.60;;;0.50;;
15931;SDS011;8065;49.520;11.284;2024-03-29T08:16:55;0.40;;;0.40;;
15931;SDS011;8065;49.520;11.284;2024-03-29T08:19:21;1.13;;;0.73;;
15931;SDS011;8065;49.520;11.284;2024-03-29T08:21:47;0.50;;;0.40;;
15931;SDS011;8065;49.520;11.284;2024-03-29T08:24:15;1.47;;;0.40;;
15931;SDS011;8065;49.520;11.284;2024-03-29T08:26:41;0.67;;;0.43;;
15931;SDS011;8065;49.520;11.284;2024-03-29T08:29:06;0.50;;;0.50;;
15931;SDS011;8065;49.520;11.284;2024-03-29T08:31:32;1.00;;;0.40;;
15931;SDS011;8065;49.520;11.284;2024-03-29T08:33:58;1.23;;;0.40;;
15931;SDS011;8065;49.520;11.284;2024-03-29T08:36:23;0.40;;;0.37;;
15931;SDS011;8065;49.520;11.284;2024-03-29T08:38:49;0.80;;;0.50;;
15931;SDS011;8065;49.520;11.284;2024-03-29T08:41:17;0.67;;;0.50;;
15931;SDS011;8065;49.520;11.284;2024-03-29T08:43:43;1.40;;;0.50;;
15931;SDS011;8065;49.520;11.284;2024-03-29T08:46:09;0.60;;;0.60;;
15931;SDS011;8065;49.520;11.284;2024-03-29T08:48:34;0.53;;;0.53;;
15931;SDS011;8065;49.520;11.284;2024-03-29T08:51:01;0.80;;;0.73;;
15931;SDS011;8065;49.520;11.284;2024-03-29T08:53:27;2.00;;;0.60;;
15931;SDS011;8065;49.520;11.284;2024-03-29T08:55:52;1.33;;;0.50;;
15931;SDS011;8065;49.520;11.284;2024-03-29T08:58:20;0.67;;;0.60;;
15931;SDS011;8065;49.520;11.284;2024-03-29T09:00:52;0.50;;;0.50;;
15931;SDS011;8065;49.520;11.284;2024-03-29T09:03:19;0.53;;;0.53;;
15931;SDS011;8065;49.520;11.284;2024-03-29T09:05:45;0.57;;;0.57;;
15931;SDS011;8065;49.520;11.284;2024-03-29T09:08:10;1.37;;;0.70;;
15931;SDS011;8065;49.520;11.284;2024-03-29T09:10:36;1.63;;;0.80;;
15931;SDS011;8065;49.520;11.284;2024-03-29T09:13:02;0.87;;;0.67;;
15931;SDS011;8065;49.520;11.284;2024-03-29T09:15:30;0.60;;;0.60;;
15931;SDS011;8065;49.520;11.284;2024-03-29T09:17:56;0.80;;;0.53;;
15931;SDS011;8065;49.520;11.284;2024-03-29T09:20:22;0.70;;;0.70;;
15931;SDS011;8065;49.520;11.284;2024-03-29T09:22:50;0.70;;;0.70;;
15931;SDS011;8065;49.520;11.284;2024-03-29T09:25:17;0.77;;;0.63;;
15931;SDS011;8065;49.520;11.284;2024-03-29T09:27:44;0.83;;;0.83;;
15931;SDS011;8065;49.520;11.284;2024-03-29T09:30:11;1.10;;;0.97;;
15931;SDS011;8065;49.520;11.284;2024-03-29T09:32:40;2.17;;;0.83;;
15931;SDS011;8065;49.520;11.284;2024-03-29T09:35:07;2.40;;;1.80;;
15931;SDS011;8065;49.520;11.284;2024-03-29T09:37:32;1.77;;;1.40;;
15931;SDS011;8065;49.520;11.284;2024-03-29T09:39:59;1.53;;;1.43;;
15931;SDS011;8065;49.520;11.284;2024-03-29T09:42:24;1.40;;;1.30;;
15931;SDS011;8065;49.520;11.284;2024-03-29T09:44:51;1.80;;;1.70;;
15931;SDS011;8065;49.520;11.284;2024-03-29T09:47:18;2.37;;;2.17;;
15931;SDS011;8065;49.520;11.284;2024-03-29T09:49:48;1.87;;;1.60;;
15931;SDS011;8065;49.520;11.284;2024-03-29T09:52:15;1.50;;;1.40;;
15931;SDS011;8065;49.520;11.284;2024-03-29T09:54:41;1.60;;;1.50;;
15931;SDS011;8065;49.520;11.284;2024-03-29T09:57:07;4.00;;;3.60;;
15931;SDS011;8065;49.520;11.284;2024-03-29T09:59:35;2.27;;;1.93;;
15931;SDS011;8065;49.520;11.284;2024-03-29T10:02:00;3.63;;;3.03;;
15931;SDS011;8065;49.520;11.284;2024-03-29T10:04:34;4.27;;;3.27;;
15931;SDS011;8065;49.520;11.284;2024-03-29T10:07:03;6.17;;;3.97;;
15931;SDS011;8065;49.520;11.284;2024-03-29T10:09:29;3.33;;;3.00;;
15931;SDS011;8065;49.520;11.284;2024-03-29T10:11:55;4.93;;;4.40;;
15931;SDS011;8065;49.520;11.284;2024-03-29T10:14:21;6.03;;;5.10;;
15931;SDS011;8065;49.520;11.284;2024-03-29T10:16:46;3.73;;;3.43;;
15931;SDS011;8065;49.520;11.284;2024-03-29T10:19:12;2.27;;;2.07;;
15931;SDS011;8065;49.520;11.284;2024-03-29T10:21:38;2.17;;;1.60;;
15931;SDS011;8065;49.520;11.284;2024-03-29T10:24:12;3.43;;;2.47;;
15931;SDS011;8065;49.520;11.284;2024-03-29T10:26:39;3.67;;;2.30;;
15931;SDS011;8065;49.520;11.284;2024-03-29T10:29:05;3.07;;;2.20;;
15931;SDS011;8065;49.520;11.284;2024-03-29T10:31:33;2.10;;;1.90;;
15931;SDS011;8065;49.520;11.284;2024-03-29T10:34:02;1.60;;;1.50;;
15931;SDS011;8065;49.520;11.284;2024-03-29T10:36:28;1.30;;;1.20;;
15931;SDS011;8065;49.520;11.284;2024-03-29T10:38:54;2.40;;;1.13;;
15931;SDS011;8065;49.520;11.284;2024-03-29T10:41:23;1.90;;;1.20;;
15931;SDS011;8065;49.520;11.284;2024-03-29T10:43:50;2.13;;;1.90;;
15931;SDS011;8065;49.520;11.284;2024-03-29T10:46:18;1.97;;;1.70;;
15931;SDS011;8065;49.520;11.284;2024-03-29T10:48:45;1.93;;;1.67;;
15931;SDS011;8065;49.520;11.284;2024-03-29T10:51:13;1.70;;;1.60;;
15931;SDS011;8065;49.520;11.284;2024-03-29T10:53:39;1.53;;;1.30;;
15931;SDS011;8065;49.520;11.284;2024-03-29T10:56:07;1.93;;;1.57;;
15931;SDS011;8065;49.520;11.284;2024-03-29T10:58:37;1.63;;;1.40;;
15931;SDS011;8065;49.520;11.284;2024-03-29T11:01:05;2.50;;;1.50;;
15931;SDS011;8065;49.520;11.284;2024-03-29T11:03:35;3.10;;;1.90;;
15931;SDS011;8065;49.520;11.284;2024-03-29T11:06:04;1.50;;;1.40;;
15931;SDS011;8065;49.520;11.284;2024-03-29T11:08:31;1.33;;;1.23;;
15931;SDS011;8065;49.520;11.284;2024-03-29T11:10:58;1.80;;;1.70;;
15931;SDS011;8065;49.520;11.284;2024-03-29T11:13:26;2.37;;;1.50;;
15931;SDS011;8065;49.520;11.284;2024-03-29T11:16:00;1.53;;;1.43;;
15931;SDS011;8065;49.520;11.284;2024-03-29T11:18:26;2.30;;;1.60;;
15931;SDS011;8065;49.520;11.284;2024-03-29T11:20:53;2.70;;;2.00;;
15931;SDS011;8065;49.520;11.284;2024-03-29T11:23:20;2.23;;;1.90;;
15931;SDS011;8065;49.520;11.284;2024-03-29T11:25:48;2.67;;;1.60;;
15931;SDS011;8065;49.520;11.284;2024-03-29T11:28:15;2.37;;;1.90;;
15931;SDS011;8065;49.520;11.284;2024-03-29T11:30:48;2.37;;;1.83;;
15931;SDS011;8065;49.520;11.284;2024-03-29T11:33:31;3.27;;;1.70;;
15931;SDS011;8065;49.520;11.284;2024-03-29T11:35:57;1.30;;;1.20;;
15931;SDS011;8065;49.520;11.284;2024-03-29T11:38:30;1.73;;;1.53;;
15931;SDS011;8065;49.520;11.284;2024-03-29T11:41:01;1.40;;;1.30;;
15931;SDS011;8065;49.520;11.284;2024-03-29T11:43:28;1.53;;;1.20;;
15931;SDS011;8065;49.520;11.284;2024-03-29T11:45:54;1.73;;;1.30;;
15931;SDS011;8065;49.520;11.284;2024-03-29T11:48:20;1.60;;;1.43;;
15931;SDS011;8065;49.520;11.284;2024-03-29T11:50:53;2.30;;;1.30;;
15931;SDS011;8065;49.520;11.284;2024-03-29T11:53:19;2.43;;;1.20;;
15931;SDS011;8065;49.520;11.284;2024-03-29T11:55:46;1.67;;;1.30;;
15931;SDS011;8065;49.520;11.284;2024-03-29T11:58:12;2.33;;;1.70;;
15931;SDS011;8065;49.520;11.284;2024-03-29T12:00:37;1.60;;;1.17;;
15931;SDS011;8065;49.520;11.284;2024-03-29T12:03:06;1.63;;;1.53;;
15931;SDS011;8065;49.520;11.284;2024-03-29T12:05:32;1.80;;;1.10;;
15931;SDS011;8065;49.520;11.284;2024-03-29T12:08:01;1.03;;;1.03;;
15931;SDS011;8065;49.520;11.284;2024-03-29T12:10:29;1.63;;;1.27;;
15931;SDS011;8065;49.520;11.284;2024-03-29T12:12:55;1.50;;;1.40;;
15931;SDS011;8065;49.520;11.284;2024-03-29T12:15:23;1.40;;;1.30;;
15931;SDS011;8065;49.520;11.284;2024-03-29T12:17:52;2.67;;;1.70;;
15931;SDS011;8065;49.520;11.284;2024-03-29T12:20:19;1.43;;;1.10;;
15931;SDS011;8065;49.520;11.284;2024-03-29T12:22:44;2.13;;;1.40;;
15931;SDS011;8065;49.520;11.284;2024-03-29T12:25:13;2.00;;;1.80;;
15931;SDS011;8065;49.520;11.284;2024-03-29T12:27:39;3.80;;;1.83;;
15931;SDS011;8065;49.520;11.284;2024-03-29T12:30:07;3.80;;;2.17;;
15931;SDS011;8065;49.520;11.284;2024-03-29T12:32:33;1.47;;;1.30;;
15931;SDS011;8065;49.520;11.284;2024-03-29T12:35:06;1.83;;;1.20;;
15931;SDS011;8065;49.520;11.284;2024-03-29T12:37:33;1.20;;;1.10;;
15931;SDS011;8065;49.520;11.284;2024-03-29T12:39:59;1.00;;;1.00;;
15931;SDS011;8065;49.520;11.284;2024-03-29T12:42:27;0.90;;;0.83;;
15931;SDS011;8065;49.520;11.284;2024-03-29T12:44:53;1.20;;;1.10;;
15931;SDS011;8065;49.520;11.284;2024-03-29T12:47:19;1.20;;;1.10;;
15931;SDS011;8065;49.520;11.284;2024-03-29T12:49:45;2.33;;;1.20;;
15931;SDS011;8065;49.520;11.284;2024-03-29T12:52:11;2.07;;;1.37;;
15931;SDS011;8065;49.520;11.284;2024-03-29T12:54:36;2.67;;;1.87;;
15931;SDS011;8065;49.520;11.284;2024-03-29T12:57:02;1.50;;;1.40;;
15931;SDS011;8065;49.520;11.284;2024-03-29T12:59:33;1.30;;;1.20;;
15931;SDS011;8065;49.520;11.284;2024-03-29T13:01:59;1.30;;;1.20;;
15931;SDS011;8065;49.520;11.284;2024-03-29T13:04:24;1.30;;;1.20;;
15931;SDS011;8065;49.520;11.284;2024-03-29T13:06:50;0.97;;;0.97;;
15931;SDS011;8065;49.520;11.284;2024-03-29T13:09:16;1.30;;;1.20;;
15931;SDS011;8065;49.520;11.284;2024-03-29T13:11:42;1.23;;;1.07;;
15931;SDS011;8065;49.520;11.284;2024-03-29T13:14:07;0.90;;;0.90;;
15931;SDS011;8065;49.520;11.284;2024-03-29T13:16:36;1.23;;;1.00;;
15931;SDS011;8065;49.520;11.284;2024-03-29T13:19:01;1.57;;;1.47;;
15931;SDS011;8065;49.520;11.284;2024-03-29T13:21:27;1.80;;;1.57;;
15931;SDS011;8065;49.520;11.284;2024-03-29T13:23:53;2.47;;;2.27;;
15931;SDS011;8065;49.520;11.284;2024-03-29T13:26:19;2.17;;;1.83;;
15931;SDS011;8065;49.520;11.284;2024-03-29T13:28:45;1.40;;;1.30;;
15931;SDS011;8065;49.520;11.284;2024-03-29T13:31:10;1.40;;;1.30;;
15931;SDS011;8065;49.520;11.284;2024-03-29T13:33:39;2.73;;;2.13;;
15931;SDS011;8065;49.520;11.284;2024-03-29T13:36:05;1.17;;;1.10;;
15931;SDS011;8065;49.520;11.284;2024-03-29T13:38:31;1.80;;;1.67;;
15931;SDS011;8065;49.520;11.284;2024-03-29T13:40:57;5.17;;;3.57;;
15931;SDS011;8065;49.520;11.284;2024-03-29T13:43:22;3.83;;;3.00;;
15931;SDS011;8065;49.520;11.284;2024-03-29T13:45:48;4.70;;;2.50;;
15931;SDS011;8065;49.520;11.284;2024-03-29T13:48:14;2.40;;;2.00;;
15931;SDS011;8065;49.520;11.284;2024-03-29T13:50:42;3.13;;;2.23;;
15931;SDS011;8065;49.520;11.284;2024-03-29T13:53:08;2.43;;;1.73;;
15931;SDS011;8065;49.520;11.284;2024-03-29T13:55:34;2.47;;;2.10;;
15931;SDS011;8065;49.520;11.284;2024-03-29T13:57:59;2.03;;;1.80;;
15931;SDS011;8065;49.520;11.284;2024-03-29T14:00:25;2.27;;;2.03;;
15931;SDS011;8065;49.520;11.284;2024-03-29T14:02:51;4.13;;;2.53;;
15931;SDS011;8065;49.520;11.284;2024-03-29T14:05:16;3.37;;;2.20;;
15931;SDS011;8065;49.520;11.284;2024-03-29T14:07:45;1.37;;;1.10;;
15931;SDS011;8065;49.520;11.284;2024-03-29T14:10:10;1.20;;;1.10;;
15931;SDS011;8065;49.520;11.284;2024-03-29T14:12:36;1.17;;;0.90;;
15931;SDS011;8065;49.520;11.284;2024-03-29T14:15:02;1.53;;;1.33;;
15931;SDS011;8065;49.520;11.284;2024-03-29T14:17:28;2.07;;;1.50;;
15931;SDS011;8065;49.520;11.284;2024-03-29T14:19:54;1.37;;;1.30;;
15931;SDS011;8065;49.520;11.284;2024-03-29T14:22:19;1.60;;;1.30;;
15931;SDS011;8065;49.520;11.284;2024-03-29T14:24:48;2.40;;;1.87;;
15931;SDS011;8065;49.520;11.284;2024-03-29T14:27:13;1.10;;;1.00;;
15931;SDS011;8065;49.520;11.284;2024-03-29T14:29:39;2.17;;;1.07;;
15931;SDS011;8065;49.520;11.284;2024-03-29T14:32:05;1.07;;;0.97;;
15931;SDS011;8065;49.520;11.284;2024-03-29T14:34:31;2.77;;;1.40;;
15931;SDS011;8065;49.520;11.284;2024-03-29T14:36:57;0.80;;;0.80;;
15931;SDS011;8065;49.520;11.284;2024-03-29T14:39:23;0.97;;;0.97;;
15931;SDS011;8065;49.520;11.284;2024-03-29T14:41:51;0.70;;;0.70;;
15931;SDS011;8065;49.520;11.284;2024-03-29T14:44:17;0.80;;;0.80;;